Time;durP1;ratioP1;P1;durP2;ratioP2;P2;SDS_P1;SDS_P2;PMS_P1;PMS_P2;Temp;Humidity;BMP_temperature;BMP_pressure;BME280_temperature;BME280_humidity;BME280_pressure;Samples;Min_cycle;Max_cycle;Signal;HPM_P1;HPM_P2
2022/07/25 00:01:49;;;;;;;5.13;4.63;;;22.40;99.90;;;;;;5005647;28;20049;-51
2022/07/25 00:04:15;;;;;;;5.25;4.75;;;22.30;99.90;;;;;;5006373;28;20872;-52
2022/07/25 00:06:41;;;;;;;5.82;4.82;;;22.30;99.90;;;;;;5006063;28;20086;-51
2022/07/25 00:09:08;;;;;;;5.10;4.70;;;22.30;99.90;;;;;;5012705;28;20097;-50
2022/07/25 00:11:34;;;;;;;6.20;5.00;;;22.30;99.90;;;;;;5010220;28;20056;-43
2022/07/25 00:14:00;;;;;;;5.18;4.68;;;22.30;99.90;;;;;;5006463;28;20049;-54
2022/07/25 00:16:25;;;;;;;4.82;4.43;;;22.30;99.90;;;;;;5006584;28;20412;-50
2022/07/25 00:18:51;;;;;;;5.10;4.70;;;22.30;99.90;;;;;;4992992;28;20057;-49
2022/07/25 00:21:17;;;;;;;6.32;4.80;;;22.20;99.90;;;;;;4998556;28;20125;-49
2022/07/25 00:23:45;;;;;;;4.93;4.43;;;22.20;99.90;;;;;;4997062;28;20048;-49
2022/07/25 00:26:11;;;;;;;5.40;4.70;;;22.10;99.90;;;;;;5006046;28;20060;-51
2022/07/25 00:28:36;;;;;;;5.20;4.78;;;22.10;99.90;;;;;;5005423;28;20050;-52
2022/07/25 00:31:11;;;;;;;6.35;5.15;;;22.00;99.90;;;;;;5015751;28;20157;-50
2022/07/25 00:33:39;;;;;;;5.35;4.82;;;22.00;99.90;;;;;;4986506;28;20054;-49
2022/07/25 00:36:07;;;;;;;5.90;5.40;;;21.90;99.90;;;;;;5006863;28;20092;-48
2022/07/25 00:38:33;;;;;;;5.90;5.10;;;21.90;99.90;;;;;;5006096;28;20071;-51
2022/07/25 00:41:01;;;;;;;5.30;4.85;;;21.80;99.90;;;;;;5005765;28;20088;-53
2022/07/25 00:47:31;;;;;;;5.03;4.63;;;21.80;99.90;;;;;;4987469;28;20418;-48
2022/07/25 00:49:57;;;;;;;5.43;4.95;;;21.70;99.90;;;;;;4985949;28;20050;-53
2022/07/25 00:52:24;;;;;;;5.85;5.35;;;21.60;99.90;;;;;;5001504;28;20089;-50
2022/07/25 00:54:51;;;;;;;5.70;5.20;;;21.60;99.90;;;;;;4987904;28;20054;-54
2022/07/25 00:57:17;;;;;;;5.60;5.10;;;21.60;99.90;;;;;;4997572;28;20405;-51
2022/07/25 00:59:42;;;;;;;6.20;5.50;;;21.50;99.90;;;;;;4976694;28;20054;-52
2022/07/25 01:02:08;;;;;;;6.82;6.07;;;21.50;99.90;;;;;;4989594;28;20050;-50
2022/07/25 01:04:34;;;;;;;6.07;5.20;;;21.50;99.90;;;;;;4986349;28;20054;-48
2022/07/25 01:07:01;;;;;;;6.70;5.57;;;21.50;99.90;;;;;;4986093;28;20051;-53
2022/07/25 01:09:31;;;;;;;7.10;5.05;;;21.50;99.90;;;;;;4988457;28;20053;-51
2022/07/25 01:11:57;;;;;;;7.07;5.32;;;21.50;99.90;;;;;;4984236;28;20062;-50
2022/07/25 01:14:26;;;;;;;7.30;4.85;;;21.50;99.90;;;;;;4974866;28;20547;-54
2022/07/25 01:16:52;;;;;;;6.13;5.28;;;21.50;99.90;;;;;;4987449;28;20061;-50
2022/07/25 01:19:18;;;;;;;7.32;5.65;;;21.50;99.90;;;;;;5002645;28;20501;-52
2022/07/25 01:21:44;;;;;;;6.45;5.40;;;21.50;99.90;;;;;;4991109;28;20093;-51
2022/07/25 01:24:11;;;;;;;5.45;5.05;;;21.50;99.90;;;;;;4985336;28;20054;-49
2022/07/25 01:26:37;;;;;;;8.00;5.35;;;21.50;99.90;;;;;;4985306;28;20069;-51
2022/07/25 01:29:04;;;;;;;6.18;5.68;;;21.50;99.90;;;;;;4986245;28;20078;-52
2022/07/25 01:31:30;;;;;;;6.15;5.60;;;21.40;99.90;;;;;;4973485;28;20043;-49
2022/07/25 01:33:56;;;;;;;6.47;5.25;;;21.40;99.90;;;;;;4976457;28;20054;-46
2022/07/25 01:36:22;;;;;;;7.03;5.97;;;21.40;99.90;;;;;;4998043;28;20042;-49
2022/07/25 01:38:48;;;;;;;7.90;5.90;;;21.40;99.90;;;;;;4987539;28;20390;-53
2022/07/25 01:41:14;;;;;;;6.55;5.97;;;21.40;99.90;;;;;;4968950;28;20101;-46
2022/07/25 01:43:40;;;;;;;6.47;5.88;;;21.40;99.90;;;;;;4985060;28;20050;-52
2022/07/25 01:46:06;;;;;;;6.88;5.80;;;21.40;99.90;;;;;;4990282;28;20061;-52
2022/07/25 01:48:32;;;;;;;6.55;5.93;;;21.40;99.90;;;;;;5003797;28;20053;-52
2022/07/25 01:50:58;;;;;;;6.07;5.47;;;21.30;99.90;;;;;;5007126;28;20057;-53
2022/07/25 01:53:27;;;;;;;8.38;6.15;;;21.30;99.90;;;;;;4997145;28;20058;-50
2022/07/25 01:55:53;;;;;;;6.80;6.10;;;21.30;99.90;;;;;;5003372;28;20054;-47
2022/07/25 01:58:19;;;;;;;5.55;5.13;;;21.20;99.90;;;;;;4983914;28;20453;-52
2022/07/25 02:00:45;;;;;;;6.32;5.60;;;21.20;99.90;;;;;;5002359;28;20061;-52
2022/07/25 02:03:30;;;;;;;6.25;5.55;;;21.20;99.90;;;;;;5000779;28;20045;-53
2022/07/25 02:06:02;;;;;;;5.88;5.30;;;21.10;99.90;;;;;;5000361;28;20046;-47
2022/07/25 02:08:29;;;;;;;8.43;6.75;;;21.10;99.90;;;;;;5004356;28;20108;-49
2022/07/25 02:10:56;;;;;;;6.80;6.10;;;21.10;99.90;;;;;;5023033;28;20570;-52
2022/07/25 02:13:22;;;;;;;6.80;5.97;;;21.10;99.90;;;;;;5006696;28;20050;-45
2022/07/25 02:15:49;;;;;;;7.05;6.00;;;21.00;99.90;;;;;;5002991;28;20050;-51
2022/07/25 02:18:15;;;;;;;6.47;5.85;;;21.00;99.90;;;;;;4998324;28;20161;-46
2022/07/25 02:20:41;;;;;;;8.20;7.10;;;21.00;99.90;;;;;;5023123;28;20059;-52
2022/07/25 02:23:07;;;;;;;6.97;6.28;;;21.00;99.90;;;;;;5010492;28;20050;-49
2022/07/25 02:25:33;;;;;;;7.70;6.90;;;20.90;99.90;;;;;;5001971;28;20050;-43
2022/07/25 02:27:59;;;;;;;6.78;6.22;;;20.90;99.90;;;;;;5002782;28;20049;-49
2022/07/25 02:30:25;;;;;;;6.88;6.20;;;20.90;99.90;;;;;;5007257;28;20049;-48
2022/07/25 02:32:51;;;;;;;8.32;7.53;;;20.90;99.90;;;;;;5022690;28;20053;-51
2022/07/25 02:35:17;;;;;;;8.48;7.55;;;20.90;99.90;;;;;;5001749;28;20107;-51
2022/07/25 02:37:43;;;;;;;7.57;6.88;;;20.80;99.90;;;;;;5002880;28;20042;-49
2022/07/25 02:40:10;;;;;;;7.75;7.05;;;20.80;99.90;;;;;;4969089;28;20068;-47
2022/07/25 02:42:36;;;;;;;12.55;8.02;;;20.80;99.90;;;;;;5004524;28;20408;-55
2022/07/25 02:45:03;;;;;;;7.75;7.05;;;20.80;99.90;;;;;;5001829;28;20050;-48
2022/07/25 02:47:29;;;;;;;7.15;6.55;;;20.70;99.90;;;;;;5002718;28;20057;-51
2022/07/25 02:49:55;;;;;;;9.77;7.30;;;20.70;99.90;;;;;;4992666;28;20428;-50
2022/07/25 02:52:21;;;;;;;7.60;6.85;;;20.70;99.90;;;;;;5005112;28;20092;-49
2022/07/25 02:54:49;;;;;;;8.38;6.95;;;20.70;99.90;;;;;;5022957;28;20053;-50
2022/07/25 02:57:15;;;;;;;8.43;7.45;;;20.70;99.90;;;;;;5017358;28;20047;-49
2022/07/25 02:59:41;;;;;;;7.53;6.93;;;20.70;99.90;;;;;;4988321;28;20104;-47
2022/07/25 03:02:07;;;;;;;8.25;6.78;;;20.70;99.90;;;;;;4999820;28;20054;-48
2022/07/25 03:04:33;;;;;;;8.88;7.43;;;20.70;99.90;;;;;;5002124;28;20046;-48
2022/07/25 03:06:59;;;;;;;7.80;7.10;;;20.70;99.90;;;;;;4984313;28;20215;-52
2022/07/25 03:09:25;;;;;;;8.77;7.97;;;20.70;99.90;;;;;;5011483;28;20515;-48
2022/07/25 03:11:51;;;;;;;8.85;7.95;;;20.70;99.90;;;;;;4995469;28;20057;-51
2022/07/25 03:14:18;;;;;;;8.10;7.40;;;20.70;99.90;;;;;;5024016;28;20049;-49
2022/07/25 03:16:44;;;;;;;7.68;7.00;;;20.60;99.90;;;;;;5025766;28;20387;-48
2022/07/25 03:19:11;;;;;;;8.05;7.38;;;20.60;99.90;;;;;;5026464;28;20056;-50
2022/07/25 03:21:38;;;;;;;10.20;7.05;;;20.60;99.90;;;;;;4995185;28;20054;-51
2022/07/25 03:24:04;;;;;;;8.93;8.13;;;20.60;99.90;;;;;;4990939;28;20067;-50
2022/07/25 03:26:30;;;;;;;8.52;7.72;;;20.50;99.90;;;;;;4989904;28;20792;-49
2022/07/25 03:28:56;;;;;;;8.25;7.45;;;20.50;99.90;;;;;;5008889;28;20052;-54
2022/07/25 03:31:22;;;;;;;8.85;8.05;;;20.60;99.90;;;;;;5010433;28;20049;-49
2022/07/25 03:33:48;;;;;;;9.80;8.85;;;20.60;99.90;;;;;;4972064;28;20092;-51
2022/07/25 03:36:14;;;;;;;10.10;9.10;;;20.50;99.90;;;;;;4989900;28;20085;-52
2022/07/25 03:38:40;;;;;;;10.02;8.95;;;20.50;99.90;;;;;;5024794;28;20479;-51
2022/07/25 03:41:06;;;;;;;10.20;9.20;;;20.50;99.90;;;;;;4988686;28;20065;-48
2022/07/25 03:43:32;;;;;;;10.40;9.52;;;20.50;99.90;;;;;;4984767;28;20062;-53
2022/07/25 03:45:59;;;;;;;11.13;9.10;;;20.50;99.90;;;;;;4988490;28;20508;-47
2022/07/25 03:48:25;;;;;;;10.38;9.38;;;20.50;99.90;;;;;;4972183;28;20066;-49
2022/07/25 03:50:51;;;;;;;10.43;9.35;;;20.40;99.90;;;;;;5006036;28;20060;-48
2022/07/25 03:53:16;;;;;;;10.63;9.63;;;20.40;99.90;;;;;;5000136;28;20050;-52
2022/07/25 03:55:42;;;;;;;10.52;9.63;;;20.50;99.90;;;;;;5002762;28;20046;-50
2022/07/25 03:58:08;;;;;;;10.50;9.60;;;20.40;99.90;;;;;;5002576;28;20136;-48
2022/07/25 04:00:34;;;;;;;9.90;9.10;;;20.40;99.90;;;;;;5006203;28;20045;-52
2022/07/25 04:03:00;;;;;;;9.90;8.98;;;20.40;99.90;;;;;;5006227;28;20183;-52
2022/07/25 04:05:26;;;;;;;10.30;9.40;;;20.40;99.90;;;;;;5002916;28;20466;-60
2022/07/25 04:07:52;;;;;;;11.43;9.82;;;20.40;99.90;;;;;;5004983;28;20054;-49
2022/07/25 04:10:18;;;;;;;10.63;9.63;;;20.40;99.90;;;;;;5006296;28;20144;-52
2022/07/25 04:12:44;;;;;;;10.25;9.43;;;20.40;99.90;;;;;;5005640;28;20148;-51
2022/07/25 04:15:15;;;;;;;10.82;9.82;;;20.50;99.90;;;;;;4998527;28;20049;-54
2022/07/25 04:17:41;;;;;;;10.73;9.77;;;20.50;99.90;;;;;;4986504;28;20065;-50
2022/07/25 04:20:07;;;;;;;11.32;9.50;;;20.50;99.90;;;;;;4987893;28;20058;-51
2022/07/25 04:22:34;;;;;;;11.88;10.13;;;20.50;99.90;;;;;;4986726;28;20057;-48
2022/07/25 04:25:00;;;;;;;10.80;9.80;;;20.50;99.90;;;;;;5005251;28;20159;-53
2022/07/25 04:27:26;;;;;;;11.27;10.27;;;20.50;99.90;;;;;;5006225;28;20062;-52
2022/07/25 04:29:52;;;;;;;11.82;9.82;;;20.50;99.90;;;;;;5005113;28;20056;-50
2022/07/25 04:32:18;;;;;;;10.88;9.95;;;20.50;99.90;;;;;;4987955;28;20057;-49
2022/07/25 04:34:44;;;;;;;10.52;9.63;;;20.50;99.90;;;;;;4974025;28;20066;-52
2022/07/25 04:37:11;;;;;;;11.48;10.23;;;20.60;99.90;;;;;;4999886;28;20145;-52
2022/07/25 04:39:36;;;;;;;11.60;10.60;;;20.60;99.90;;;;;;4986777;28;20046;-48
2022/07/25 04:42:05;;;;;;;11.52;10.30;;;20.60;99.90;;;;;;5011817;28;20088;-50
2022/07/25 04:44:31;;;;;;;10.68;9.77;;;20.60;99.90;;;;;;5024354;28;20045;-54
2022/07/25 04:46:57;;;;;;;11.75;10.50;;;20.60;99.90;;;;;;5006282;28;20057;-50
2022/07/25 04:49:23;;;;;;;12.05;10.98;;;20.60;99.90;;;;;;5007185;28;20115;-51
2022/07/25 04:51:49;;;;;;;12.45;11.20;;;20.70;99.90;;;;;;5025279;28;20060;-49
2022/07/25 04:54:15;;;;;;;12.35;11.00;;;20.80;99.90;;;;;;5025003;28;20081;-51
2022/07/25 04:56:41;;;;;;;12.35;11.10;;;20.70;99.90;;;;;;5023842;28;20068;-52
2022/07/25 04:59:10;;;;;;;11.73;10.63;;;20.80;99.90;;;;;;5025544;28;20179;-52
2022/07/25 05:01:35;;;;;;;11.63;10.63;;;20.80;99.90;;;;;;5007028;28;20143;-49
2022/07/25 05:04:02;;;;;;;13.15;11.85;;;20.80;99.90;;;;;;5024701;28;20052;-51
2022/07/25 05:06:27;;;;;;;12.40;11.32;;;20.80;99.90;;;;;;5006785;28;20049;-51
2022/07/25 05:08:54;;;;;;;12.27;11.07;;;20.90;99.90;;;;;;4978096;28;20738;-43
2022/07/25 05:11:19;;;;;;;12.60;11.30;;;20.90;99.90;;;;;;5015918;28;20057;-52
2022/07/25 05:13:45;;;;;;;12.57;11.50;;;20.90;99.90;;;;;;5002787;28;20049;-51
2022/07/25 05:16:11;;;;;;;12.38;11.18;;;21.00;99.90;;;;;;5003473;28;20056;-49
2022/07/25 05:18:37;;;;;;;12.07;10.98;;;21.00;99.90;;;;;;5005064;28;20204;-49
2022/07/25 05:21:03;;;;;;;12.30;11.20;;;21.00;99.90;;;;;;5004114;28;20054;-50
2022/07/25 05:23:30;;;;;;;12.77;11.65;;;21.00;99.90;;;;;;4987468;28;20056;-49
2022/07/25 05:25:56;;;;;;;12.50;11.43;;;21.10;99.90;;;;;;5001825;28;20069;-53
2022/07/25 05:28:22;;;;;;;12.45;11.10;;;21.10;99.90;;;;;;4984918;28;20050;-51
2022/07/25 05:30:48;;;;;;;12.43;11.15;;;21.10;99.90;;;;;;4986047;28;20066;-51
2022/07/25 05:33:14;;;;;;;12.63;11.35;;;21.10;99.90;;;;;;4984717;28;20137;-46
2022/07/25 05:35:40;;;;;;;14.30;11.88;;;21.20;99.90;;;;;;4984699;28;20050;-51
2022/07/25 05:38:05;;;;;;;12.73;11.60;;;21.30;99.90;;;;;;4966823;28;20112;-50
2022/07/25 05:40:31;;;;;;;13.27;12.07;;;21.40;99.90;;;;;;4985396;28;20112;-49
2022/07/25 05:42:57;;;;;;;13.65;12.45;;;21.60;99.90;;;;;;4993265;28;20188;-51
2022/07/25 05:45:23;;;;;;;13.55;12.10;;;21.70;99.90;;;;;;5018710;28;20050;-51
2022/07/25 05:47:49;;;;;;;13.30;12.05;;;21.70;99.90;;;;;;5021917;28;20148;-50
2022/07/25 05:50:15;;;;;;;12.95;11.73;;;21.80;99.90;;;;;;5001374;28;20486;-52
2022/07/25 05:52:41;;;;;;;12.30;11.20;;;21.90;99.90;;;;;;4984278;28;20049;-52
2022/07/25 05:55:07;;;;;;;12.23;11.10;;;22.10;99.90;;;;;;5004412;28;20050;-52
2022/07/25 05:57:35;;;;;;;12.38;11.25;;;22.30;99.90;;;;;;5003859;28;20042;-44
2022/07/25 06:00:04;;;;;;;12.77;11.57;;;22.40;99.90;;;;;;5004499;28;20662;-50
2022/07/25 06:02:30;;;;;;;11.75;10.75;;;22.60;99.90;;;;;;4999756;28;20108;-46
2022/07/25 06:04:56;;;;;;;12.10;11.07;;;22.60;99.90;;;;;;4996582;28;20557;-51
2022/07/25 06:07:22;;;;;;;12.35;11.13;;;22.70;99.90;;;;;;5004170;28;20061;-52
2022/07/25 06:09:48;;;;;;;12.50;11.30;;;22.80;99.90;;;;;;4974886;28;20126;-51
2022/07/25 06:12:14;;;;;;;12.30;11.10;;;22.90;99.90;;;;;;5014177;28;20049;-48
2022/07/25 06:14:39;;;;;;;12.20;11.20;;;23.10;99.90;;;;;;5003910;28;20618;-47
2022/07/25 06:17:05;;;;;;;12.90;11.52;;;23.40;99.90;;;;;;4986138;28;20061;-53
2022/07/25 06:19:31;;;;;;;13.07;11.88;;;23.80;99.90;;;;;;4985857;28;20065;-50
2022/07/25 06:21:57;;;;;;;12.98;11.68;;;24.00;99.90;;;;;;5003657;28;20046;-52
2022/07/25 06:24:23;;;;;;;13.63;12.18;;;24.50;99.90;;;;;;5004108;28;20049;-50
2022/07/25 06:26:49;;;;;;;13.25;11.93;;;24.90;99.90;;;;;;5005338;28;20124;-48
2022/07/25 06:29:16;;;;;;;12.38;11.27;;;25.00;99.90;;;;;;5004350;28;20543;-53
2022/07/25 06:31:42;;;;;;;13.20;12.02;;;25.20;99.90;;;;;;4973809;28;20046;-47
2022/07/25 06:34:07;;;;;;;13.02;11.82;;;25.20;99.90;;;;;;4976980;28;20058;-49
2022/07/25 06:36:34;;;;;;;12.73;11.63;;;26.10;99.90;;;;;;4985575;28;20090;-49
2022/07/25 06:39:00;;;;;;;14.02;12.63;;;27.80;99.90;;;;;;4981464;28;20057;-49
2022/07/25 06:41:26;;;;;;;12.70;11.68;;;29.10;99.90;;;;;;5008760;28;20556;-51
2022/07/25 06:43:52;;;;;;;14.13;12.80;;;29.70;99.90;;;;;;4980569;28;20124;-48
2022/07/25 06:46:18;;;;;;;13.35;12.05;;;29.70;99.90;;;;;;4985709;28;20153;-52
2022/07/25 06:48:44;;;;;;;13.68;12.38;;;29.00;99.90;;;;;;4986637;28;20064;-52
2022/07/25 06:51:10;;;;;;;13.85;12.55;;;28.50;99.90;;;;;;5004591;28;20064;-52
2022/07/25 06:53:36;;;;;;;12.05;10.95;;;28.00;99.90;;;;;;4986823;28;20137;-51
2022/07/25 06:56:02;;;;;;;12.85;11.10;;;27.80;99.90;;;;;;5003232;28;20184;-50
2022/07/25 06:58:28;;;;;;;12.38;9.68;;;28.50;99.90;;;;;;5008276;28;20577;-54
2022/07/25 07:00:54;;;;;;;11.30;8.95;;;29.70;99.90;;;;;;5004400;28;20050;-51
2022/07/25 07:03:20;;;;;;;9.95;9.05;;;30.20;99.90;;;;;;4969846;28;20060;-48
2022/07/25 07:05:46;;;;;;;8.43;7.55;;;30.30;99.30;;;;;;5005399;28;20132;-53
2022/07/25 07:08:12;;;;;;;7.03;6.40;;;31.10;99.40;;;;;;4999325;28;20047;-54
2022/07/25 07:10:39;;;;;;;7.60;6.85;;;31.10;98.70;;;;;;5002990;28;20053;-52
2022/07/25 07:13:10;;;;;;;7.55;6.78;;;30.60;98.60;;;;;;4986623;28;20057;-50
2022/07/25 07:15:37;;;;;;;6.82;6.10;;;29.90;97.80;;;;;;4986810;28;20058;-54
2022/07/25 07:18:05;;;;;;;7.05;5.45;;;29.30;98.80;;;;;;4985527;28;20058;-53
2022/07/25 07:20:31;;;;;;;6.25;5.20;;;28.60;99.00;;;;;;4986027;28;20092;-53
2022/07/25 07:22:57;;;;;;;5.40;4.88;;;28.10;99.30;;;;;;5004271;28;20166;-52
2022/07/25 07:25:23;;;;;;;6.38;4.63;;;27.80;99.50;;;;;;4994100;28;20064;-53
2022/07/25 07:27:50;;;;;;;6.07;4.32;;;27.80;99.60;;;;;;5012721;28;20042;-53
2022/07/25 07:30:18;;;;;;;6.90;3.78;;;28.30;99.90;;;;;;5008016;28;20077;-51
2022/07/25 07:32:44;;;;;;;5.65;4.28;;;28.90;99.30;;;;;;5024194;28;20049;-53
2022/07/25 07:35:11;;;;;;;5.93;4.30;;;29.00;98.70;;;;;;5024579;28;20068;-52
2022/07/25 07:37:37;;;;;;;4.60;4.00;;;29.00;98.10;;;;;;4993337;28;20053;-53
2022/07/25 07:40:03;;;;;;;5.68;3.30;;;28.60;97.80;;;;;;5004362;28;20812;-49
2022/07/25 07:42:44;;;;;;;3.17;2.70;;;28.20;97.20;;;;;;5003662;28;20042;-53
2022/07/25 07:45:19;;;;;;;3.30;2.55;;;27.60;96.60;;;;;;4981110;28;20132;-51
2022/07/25 07:47:52;;;;;;;13.90;3.28;;;27.10;97.00;;;;;;4980587;28;20139;-50
2022/07/25 07:50:22;;;;;;;5.65;3.13;;;27.00;97.10;;;;;;5024468;28;20053;-52
2022/07/25 07:52:49;;;;;;;2.97;2.05;;;26.80;96.90;;;;;;5005929;28;20115;-51
2022/07/25 07:58:00;;;;;;;3.47;2.42;;;26.50;96.80;;;;;;5003284;28;20133;-53
2022/07/25 08:00:35;;;;;;;4.13;2.25;;;26.40;96.70;;;;;;4996968;28;20061;-54
2022/07/25 08:03:01;;;;;;;5.15;2.67;;;26.20;96.70;;;;;;4992465;28;20065;-51
2022/07/25 08:05:30;;;;;;;5.05;2.92;;;26.00;96.90;;;;;;5013207;28;20057;-52
2022/07/25 08:07:57;;;;;;;3.80;2.65;;;25.70;97.20;;;;;;5006478;28;20846;-53
2022/07/25 08:10:30;;;;;;;3.00;2.33;;;25.50;97.70;;;;;;5017159;28;20492;-52
2022/07/25 08:12:57;;;;;;;3.15;2.42;;;25.30;97.90;;;;;;5009581;28;20049;-54
2022/07/25 08:15:24;;;;;;;4.07;2.55;;;25.00;98.30;;;;;;5009300;28;20137;-50
2022/07/25 08:17:51;;;;;;;4.22;2.80;;;24.80;98.60;;;;;;4987103;28;20075;-52
2022/07/25 08:20:21;;;;;;;3.33;3.00;;;24.50;99.00;;;;;;4993495;28;20069;-53
2022/07/25 08:22:49;;;;;;;8.02;3.42;;;24.40;99.20;;;;;;4988688;28;20057;-54
2022/07/25 08:25:19;;;;;;;3.20;2.78;;;24.30;99.90;;;;;;4971053;28;20046;-52
2022/07/25 08:27:48;;;;;;;4.57;3.00;;;24.20;99.90;;;;;;4985859;28;20515;-53
2022/07/25 08:30:18;;;;;;;5.45;2.95;;;24.10;99.90;;;;;;4982268;28;20054;-51
2022/07/25 08:32:55;;;;;;;5.47;3.22;;;24.10;99.90;;;;;;5014283;28;20049;-55
2022/07/25 08:35:23;;;;;;;4.03;2.72;;;24.10;99.90;;;;;;5026479;28;20140;-50
2022/07/25 08:37:54;;;;;;;4.85;2.95;;;24.20;99.90;;;;;;5019821;28;20061;-52
2022/07/25 08:40:23;;;;;;;3.00;2.40;;;24.40;99.90;;;;;;4995161;28;20053;-51
2022/07/25 08:42:50;;;;;;;4.05;2.75;;;24.50;99.90;;;;;;5015741;28;20056;-52
2022/07/25 08:45:18;;;;;;;2.80;2.28;;;24.70;99.90;;;;;;5020218;28;20586;-48
2022/07/25 08:47:46;;;;;;;4.35;2.63;;;24.70;99.70;;;;;;4988117;28;20057;-50
2022/07/25 08:50:14;;;;;;;4.68;2.40;;;24.70;99.40;;;;;;4997912;28;20508;-51
2022/07/25 08:52:47;;;;;;;3.05;2.30;;;24.50;99.50;;;;;;4969332;28;20119;-52
2022/07/25 08:55:15;;;;;;;;;;;24.40;99.90;;;;;;5009437;28;20053;-52
2022/07/25 08:57:42;;;;;;;3.60;2.53;;;24.10;99.90;;;;;;4982455;28;19936;-54
2022/07/25 09:00:15;;;;;;;7.45;3.13;;;24.00;99.90;;;;;;4980162;28;20053;-49
2022/07/25 09:02:41;;;;;;;5.60;2.80;;;23.90;99.90;;;;;;5023382;28;20057;-55
2022/07/25 09:05:08;;;;;;;4.13;2.55;;;23.70;99.90;;;;;;4998046;28;20057;-52
2022/07/25 09:07:40;;;;;;;5.28;2.70;;;23.70;99.90;;;;;;4981960;28;20058;-47
2022/07/25 09:10:18;;;;;;;;;;;23.90;99.90;;;;;;5015853;28;20590;-54
2022/07/25 09:12:51;;;;;;;3.05;2.33;;;23.90;99.90;;;;;;4987101;28;19925;-52
2022/07/25 09:15:31;;;;;;;6.75;2.70;;;24.00;99.90;;;;;;4988257;28;20064;-51
2022/07/25 09:18:00;;;;;;;5.30;2.67;;;24.00;99.90;;;;;;4982621;28;20042;-54
2022/07/25 09:20:45;;;;;;;6.32;2.85;;;24.00;99.90;;;;;;4987959;28;20058;-51
2022/07/25 09:23:14;;;;;;;6.05;2.67;;;24.20;99.90;;;;;;4984589;28;20053;-54
2022/07/25 09:25:40;;;;;;;5.13;2.60;;;24.40;99.90;;;;;;4981737;28;20592;-51
2022/07/25 09:28:14;;;;;;;6.45;2.85;;;24.60;99.90;;;;;;5001324;28;20054;-50
2022/07/25 09:30:56;;;;;;;4.30;2.60;;;24.60;99.90;;;;;;4981074;28;20573;-53
2022/07/25 09:33:23;;;;;;;9.55;3.78;;;24.40;99.90;;;;;;4975624;28;20136;-50
2022/07/25 09:35:50;;;;;;;5.90;2.78;;;24.40;99.90;;;;;;5001150;28;20042;-53
2022/07/25 09:38:16;;;;;;;5.57;2.80;;;24.40;99.90;;;;;;4999161;28;20049;-51
2022/07/25 09:40:57;;;;;;;6.43;2.63;;;24.40;99.90;;;;;;4982192;28;20053;-52
2022/07/25 09:43:40;;;;;;;9.73;3.60;;;24.30;99.90;;;;;;4983497;28;20046;-50
2022/07/25 09:46:07;;;;;;;4.43;3.00;;;24.10;99.90;;;;;;4999131;28;20062;-53
2022/07/25 09:48:36;;;;;;;5.60;3.38;;;24.10;99.90;;;;;;4981619;28;20064;-52
2022/07/25 09:51:02;;;;;;;7.00;3.83;;;24.00;99.90;;;;;;4979478;28;20428;-49
2022/07/25 09:53:29;;;;;;;7.25;3.90;;;24.00;99.90;;;;;;4981632;28;20535;-52
2022/07/25 09:55:56;;;;;;;8.98;3.53;;;24.00;99.90;;;;;;4941828;28;20073;-54
2022/07/25 09:58:29;;;;;;;8.52;3.47;;;24.00;99.90;;;;;;4981691;28;20038;-50
2022/07/25 10:01:05;;;;;;;5.93;3.38;;;24.10;99.90;;;;;;4975795;28;20134;-50
2022/07/25 10:03:51;;;;;;;7.40;3.50;;;24.30;99.90;;;;;;4961939;28;20046;-50
2022/07/25 10:06:48;;;;;;;9.30;3.55;;;24.30;99.90;;;;;;4978878;28;20821;-53
2022/07/25 10:09:15;;;;;;;11.10;3.72;;;24.30;99.90;;;;;;4981421;28;20057;-46
2022/07/25 10:12:05;;;;;;;8.65;3.30;;;24.30;99.90;;;;;;4979956;28;20062;-53
2022/07/25 10:14:32;;;;;;;8.32;3.63;;;24.20;99.90;;;;;;4977605;28;20058;-51
2022/07/25 10:17:00;;;;;;;6.53;3.42;;;24.10;99.90;;;;;;4979769;28;20051;-55
2022/07/25 10:19:46;;;;;;;7.95;2.92;;;24.20;99.90;;;;;;4980430;28;20072;-52
2022/07/25 10:22:13;;;;;;;8.68;3.10;;;24.30;99.90;;;;;;4978578;28;20494;-52
2022/07/25 10:24:44;;;;;;;7.93;3.05;;;24.30;99.90;;;;;;4980553;28;20137;-51
2022/07/25 10:27:13;;;;;;;7.70;2.80;;;24.30;99.90;;;;;;4979761;28;20050;-54
2022/07/25 10:29:41;;;;;;;7.25;3.15;;;24.50;99.90;;;;;;4961627;28;20042;-52
2022/07/25 10:32:11;;;;;;;10.13;3.80;;;24.70;99.90;;;;;;4979631;28;20118;-50
2022/07/25 10:34:38;;;;;;;8.60;3.97;;;24.90;99.90;;;;;;4963346;28;20069;-55
2022/07/25 10:37:17;;;;;;;7.75;3.42;;;25.10;99.90;;;;;;4967497;28;20060;-52
2022/07/25 10:39:44;;;;;;;7.18;3.13;;;25.30;99.90;;;;;;4950015;28;20061;-52
2022/07/25 10:42:16;;;;;;;6.80;3.35;;;25.40;99.90;;;;;;4977996;28;20068;-52
2022/07/25 10:44:47;;;;;;;7.75;3.50;;;25.20;99.90;;;;;;4982916;28;20058;-49
2022/07/25 10:47:15;;;;;;;8.07;3.67;;;25.00;99.90;;;;;;4990244;28;20057;-46
2022/07/25 10:49:44;;;;;;;8.98;3.25;;;24.80;99.90;;;;;;5001832;28;20069;-51
2022/07/25 10:52:18;;;;;;;11.00;4.38;;;24.60;99.90;;;;;;4982297;28;20053;-54
2022/07/25 10:55:00;;;;;;;6.70;3.03;;;24.50;99.90;;;;;;4981659;28;20494;-54
2022/07/25 10:57:27;;;;;;;8.45;3.38;;;24.40;99.90;;;;;;5001166;28;20053;-50
2022/07/25 11:00:03;;;;;;;8.18;2.70;;;24.50;99.90;;;;;;4999584;28;20194;-47
2022/07/25 11:02:30;;;;;;;9.38;3.30;;;24.60;99.90;;;;;;4999438;28;20049;-53
2022/07/25 11:05:01;;;;;;;8.77;3.58;;;24.70;99.90;;;;;;4980549;28;20054;-51
2022/07/25 11:07:34;;;;;;;8.90;3.47;;;24.80;99.90;;;;;;4983093;28;20054;-52
2022/07/25 11:10:03;;;;;;;9.80;3.40;;;24.90;99.90;;;;;;4974584;28;20310;-53
2022/07/25 11:12:30;;;;;;;9.43;3.30;;;24.70;99.90;;;;;;4997367;28;20057;-53
2022/07/25 11:15:06;;;;;;;8.40;3.15;;;24.70;99.90;;;;;;4999217;28;20128;-52
2022/07/25 11:17:33;;;;;;;8.48;2.72;;;24.70;99.90;;;;;;5000985;28;20053;-52
2022/07/25 11:20:03;;;;;;;7.32;3.05;;;24.70;99.90;;;;;;5001501;28;20060;-52
2022/07/25 11:22:30;;;;;;;10.50;2.78;;;24.90;99.90;;;;;;4998541;28;20045;-54
2022/07/25 11:24:57;;;;;;;6.47;2.50;;;25.00;99.90;;;;;;4999679;28;20500;-55
2022/07/25 11:27:25;;;;;;;6.05;2.22;;;25.00;99.90;;;;;;4979541;28;20054;-50
2022/07/25 11:29:51;;;;;;;6.60;2.50;;;25.00;99.90;;;;;;4982687;28;20049;-52
2022/07/25 11:32:17;;;;;;;5.93;2.70;;;24.80;99.90;;;;;;4998885;28;20485;-51
2022/07/25 11:34:48;;;;;;;6.20;2.78;;;24.70;99.90;;;;;;4981994;28;20556;-51
2022/07/25 11:37:15;;;;;;;7.00;2.55;;;24.70;99.90;;;;;;5005683;28;20128;-52
2022/07/25 11:39:43;;;;;;;7.32;2.58;;;24.70;99.90;;;;;;5007168;28;20054;-53
2022/07/25 11:42:17;;;;;;;7.28;2.58;;;24.70;99.90;;;;;;5005916;28;20496;-50
2022/07/25 11:44:47;;;;;;;5.20;2.17;;;24.70;99.90;;;;;;5003327;28;20050;-53
2022/07/25 11:47:27;;;;;;;7.45;2.42;;;24.60;99.90;;;;;;5006208;28;20513;-52
2022/07/25 11:49:56;;;;;;;7.78;2.85;;;24.70;99.90;;;;;;4983458;28;20104;-54
2022/07/25 11:52:31;;;;;;;4.50;2.40;;;25.00;99.90;;;;;;5005467;28;20041;-53
2022/07/25 11:55:03;;;;;;;6.50;2.50;;;25.10;99.90;;;;;;5004349;28;20143;-50
2022/07/25 11:57:30;;;;;;;;;;;25.20;99.90;;;;;;4984590;28;20388;-52
2022/07/25 11:59:58;;;;;;;8.10;3.10;;;25.50;99.90;;;;;;4983665;28;20624;-50
2022/07/25 12:02:36;;;;;;;9.52;3.63;;;25.60;99.90;;;;;;5001107;28;20834;-51
2022/07/25 12:05:09;;;;;;;6.78;2.92;;;25.60;99.90;;;;;;5002531;28;20042;-51
2022/07/25 12:07:41;;;;;;;8.75;2.90;;;25.50;99.90;;;;;;5004591;28;20075;-52
2022/07/25 12:10:09;;;;;;;9.98;3.10;;;25.40;99.90;;;;;;4983575;28;20057;-55
2022/07/25 12:12:54;;;;;;;7.07;2.83;;;25.10;99.90;;;;;;4984475;28;20081;-52
2022/07/25 12:15:29;;;;;;;10.55;3.53;;;24.80;99.90;;;;;;4998792;28;20483;-53
2022/07/25 12:17:57;;;;;;;7.38;2.90;;;24.70;99.90;;;;;;4967456;28;20054;-55
2022/07/25 12:20:26;;;;;;;7.85;3.03;;;24.80;99.90;;;;;;4984199;28;20045;-53
2022/07/25 12:22:54;;;;;;;7.80;3.53;;;24.90;99.90;;;;;;4999984;28;20058;-49
2022/07/25 12:25:20;;;;;;;8.13;3.55;;;25.10;99.90;;;;;;4985455;28;20050;-54
2022/07/25 12:27:46;;;;;;;5.70;2.67;;;25.30;99.90;;;;;;4999313;28;20045;-49
2022/07/25 12:30:13;;;;;;;7.10;3.15;;;25.50;99.90;;;;;;4986761;28;20061;-52
2022/07/25 12:32:40;;;;;;;8.85;3.30;;;25.50;99.90;;;;;;5001302;28;20104;-52
2022/07/25 12:35:08;;;;;;;9.20;3.47;;;25.60;99.90;;;;;;5002010;28;20037;-50
2022/07/25 12:37:34;;;;;;;7.28;3.33;;;25.70;99.90;;;;;;5004104;28;20053;-50
2022/07/25 12:40:00;;;;;;;7.70;3.45;;;25.60;99.90;;;;;;4982446;28;20049;-52
2022/07/25 12:42:29;;;;;;;10.48;3.83;;;25.30;99.90;;;;;;5002807;28;20104;-54
2022/07/25 12:44:56;;;;;;;7.10;3.25;;;25.20;99.90;;;;;;5001619;28;20060;-50
2022/07/25 12:47:22;;;;;;;8.45;3.53;;;25.30;99.90;;;;;;4986703;28;21529;-52
2022/07/25 12:49:48;;;;;;;8.68;3.28;;;25.40;99.90;;;;;;4964938;28;20062;-49
2022/07/25 12:52:14;;;;;;;8.40;4.03;;;25.60;99.90;;;;;;4982759;28;20512;-51
2022/07/25 12:54:40;;;;;;;9.30;3.80;;;25.60;99.90;;;;;;4979932;28;20921;-47